createdAt,value
2018-02-06T00:01:15.034Z,26.41
2018-02-06T00:03:42.461Z,26.56
2018-02-06T00:06:09.842Z,26.68
2018-02-06T00:08:37.310Z,26.73
2018-02-06T00:11:04.651Z,26.77
2018-02-06T00:13:32.026Z,26.76
2018-02-06T00:15:59.393Z,26.78
2018-02-06T00:18:26.812Z,26.68
2018-02-06T00:20:54.274Z,26.73
2018-02-06T00:23:21.651Z,26.68
2018-02-06T00:25:49.058Z,26.81
2018-02-06T00:28:16.473Z,26.92
2018-02-06T00:30:43.809Z,26.92
2018-02-06T00:33:11.208Z,26.81
2018-02-06T00:35:38.606Z,26.76
2018-02-06T00:38:06.020Z,26.82
2018-02-06T00:40:33.373Z,26.87
2018-02-06T00:43:00.784Z,26.81
2018-02-06T00:45:28.162Z,26.91
2018-02-06T00:47:55.574Z,26.87
2018-02-06T00:50:22.990Z,27.00
2018-02-06T00:52:50.398Z,26.98
2018-02-06T00:55:17.772Z,27.11
2018-02-06T00:57:45.133Z,27.08
2018-02-06T01:00:12.510Z,26.96
2018-02-06T01:02:39.929Z,26.97
2018-02-06T01:05:07.307Z,26.98
2018-02-06T01:07:34.703Z,27.20
2018-02-06T01:10:02.053Z,27.12
2018-02-06T01:12:29.461Z,27.00
2018-02-06T01:14:56.864Z,27.06
2018-02-06T01:17:24.466Z,27.07
2018-02-06T01:19:51.958Z,27.22
2018-02-06T01:22:19.357Z,27.09
2018-02-06T01:24:46.751Z,27.18
2018-02-06T01:27:14.118Z,27.15
2018-02-06T01:29:41.561Z,27.13
2018-02-06T01:32:08.984Z,27.22
2018-02-06T01:34:36.353Z,27.38
2018-02-06T01:37:03.792Z,27.30
2018-02-06T01:39:31.158Z,27.40
2018-02-06T01:41:58.613Z,27.19
2018-02-06T01:44:25.975Z,27.36
2018-02-06T01:46:53.383Z,27.37
2018-02-06T01:49:20.806Z,27.33
2018-02-06T01:51:48.177Z,27.49
2018-02-06T01:54:15.543Z,27.42
2018-02-06T01:56:42.892Z,27.47
2018-02-06T01:59:10.297Z,27.32
2018-02-06T02:01:37.655Z,27.43
2018-02-06T02:04:05.004Z,26.88
2018-02-06T02:06:32.382Z,27.08
2018-02-06T02:08:59.768Z,27.46
2018-02-06T02:11:27.189Z,27.67
2018-02-06T02:13:54.534Z,27.82
2018-02-06T02:16:21.918Z,27.79
2018-02-06T02:18:49.351Z,27.95
2018-02-06T02:21:16.782Z,27.70
2018-02-06T02:23:44.179Z,27.75
2018-02-06T02:26:11.537Z,27.51
2018-02-06T02:28:38.980Z,27.40
2018-02-06T02:31:06.333Z,27.49
2018-02-06T02:33:33.726Z,27.60
2018-02-06T02:36:01.083Z,27.45
2018-02-06T02:38:28.454Z,27.43
2018-02-06T02:40:55.851Z,27.31
2018-02-06T04:38:49.658Z,27.58
2018-02-06T04:41:17.100Z,27.23
2018-02-06T04:43:44.488Z,27.60
2018-02-06T04:46:11.894Z,27.31
2018-02-06T04:48:39.342Z,27.20
2018-02-06T04:51:06.772Z,27.37
2018-02-06T04:53:34.211Z,27.46
2018-02-06T04:56:01.597Z,27.43
2018-02-06T04:58:29.064Z,27.31
2018-02-06T05:00:56.560Z,27.42
2018-02-06T05:03:24.015Z,27.32
2018-02-06T05:05:51.422Z,27.11
2018-02-06T05:08:18.813Z,27.09
2018-02-06T05:10:46.267Z,27.14
2018-02-06T05:13:13.709Z,27.17
2018-02-06T05:15:41.113Z,27.18
2018-02-06T05:18:08.505Z,27.13
2018-02-06T05:20:35.945Z,27.18
2018-02-06T05:23:03.447Z,27.40
2018-02-06T05:25:30.865Z,27.34
2018-02-06T05:27:58.394Z,27.26
2018-02-06T05:30:25.873Z,27.27
2018-02-06T05:32:53.313Z,27.11
2018-02-06T05:35:20.705Z,27.13
2018-02-06T05:37:48.137Z,26.82
2018-02-06T05:40:15.514Z,26.92
2018-02-06T05:42:42.931Z,26.90
2018-02-06T05:45:10.383Z,26.65
2018-02-06T05:47:37.814Z,26.82
2018-02-06T05:50:05.253Z,26.88
2018-02-06T05:52:32.655Z,26.82
2018-02-06T05:55:00.072Z,26.90
2018-02-06T05:57:27.517Z,26.96
2018-02-06T05:59:54.910Z,27.14
2018-02-06T06:02:22.358Z,27.09
2018-02-06T06:04:49.783Z,27.02
2018-02-06T06:07:17.146Z,26.94
2018-02-06T06:09:44.567Z,26.81
2018-02-06T06:12:12.008Z,26.81
2018-02-06T06:14:39.427Z,27.08
2018-02-06T06:17:06.888Z,26.84
2018-02-06T06:19:34.301Z,26.75
2018-02-06T06:22:01.702Z,26.62
2018-02-06T06:24:29.158Z,26.78
2018-02-06T06:26:56.539Z,26.73
2018-02-06T06:29:23.970Z,27.03
2018-02-06T06:31:51.402Z,27.07
2018-02-06T06:34:18.789Z,26.94
2018-02-06T06:36:46.190Z,26.65
2018-02-06T06:39:14.217Z,26.78
2018-02-06T06:41:41.685Z,26.78
2018-02-06T06:44:09.075Z,26.74
2018-02-06T06:46:36.629Z,26.59
2018-02-06T06:49:04.048Z,26.56
2018-02-06T06:51:31.482Z,26.69
2018-02-06T06:53:58.982Z,26.58
2018-02-06T06:56:26.384Z,26.32
2018-02-06T06:58:53.772Z,26.07
2018-02-06T07:01:21.676Z,26.51
2018-02-06T07:03:49.095Z,26.40
2018-02-06T07:06:16.526Z,26.32
2018-02-06T07:08:44.035Z,26.30
2018-02-06T07:11:11.467Z,26.48
2018-02-06T07:13:38.912Z,26.33
2018-02-06T07:16:06.385Z,26.57
2018-02-06T07:18:34.010Z,26.53
2018-02-06T07:21:01.477Z,26.39
2018-02-06T07:23:28.951Z,26.38
2018-02-06T07:25:56.377Z,26.19
2018-02-06T07:28:23.823Z,26.14
2018-02-06T07:30:51.249Z,26.29
2018-02-06T07:33:18.903Z,26.79
2018-02-06T07:35:46.324Z,26.43
2018-02-06T07:38:13.762Z,26.44
2018-02-06T07:40:41.254Z,26.39
2018-02-06T07:43:08.690Z,26.26
2018-02-06T07:45:36.113Z,26.49
2018-02-06T07:48:03.619Z,26.43
2018-02-06T07:50:31.059Z,26.36
2018-02-06T07:52:58.536Z,26.28
2018-02-06T07:55:25.963Z,26.45
2018-02-06T07:57:53.412Z,26.34
2018-02-06T08:00:20.835Z,26.36
2018-02-06T08:02:48.262Z,25.92
2018-02-06T08:05:16.526Z,25.84
2018-02-06T08:07:44.015Z,25.84
2018-02-06T08:10:11.396Z,26.22
2018-02-06T08:12:38.830Z,25.98
2018-02-06T08:15:06.353Z,25.84
2018-02-06T08:17:33.751Z,25.96
2018-02-06T08:20:01.202Z,25.94
2018-02-06T08:22:28.939Z,26.13
2018-02-06T08:24:57.892Z,26.28
2018-02-06T08:27:25.298Z,25.96
2018-02-06T08:29:53.214Z,26.02
2018-02-06T08:32:20.832Z,26.01
2018-02-06T08:34:48.269Z,26.13
2018-02-06T08:37:15.683Z,26.00
2018-02-06T08:39:43.191Z,25.85
2018-02-06T08:42:10.590Z,25.99
2018-02-06T08:44:38.014Z,26.04
2018-02-06T08:47:05.646Z,25.92
2018-02-06T08:49:33.062Z,26.30
2018-02-06T08:52:00.704Z,26.04
2018-02-06T08:54:28.287Z,25.86
2018-02-06T08:56:55.801Z,26.01
2018-02-06T08:59:23.391Z,26.00
2018-02-06T09:01:50.858Z,26.05
2018-02-06T09:04:18.543Z,25.86
2018-02-06T09:06:46.081Z,25.79
2018-02-06T09:09:13.845Z,25.73
2018-02-06T09:11:41.298Z,25.91
2018-02-06T09:14:08.765Z,25.85
2018-02-06T09:16:36.201Z,25.77
2018-02-06T09:19:03.765Z,25.83
2018-02-06T09:21:31.176Z,26.10
2018-02-06T09:23:58.616Z,26.33
2018-02-06T09:26:26.129Z,26.36
2018-02-06T09:28:53.608Z,26.02
2018-02-06T09:31:21.086Z,26.44
2018-02-06T09:33:48.497Z,26.28
2018-02-06T09:36:15.914Z,26.59
2018-02-06T09:38:43.374Z,26.25
2018-02-06T09:41:10.809Z,26.29
2018-02-06T09:43:38.221Z,26.35
2018-02-06T09:46:05.810Z,26.37
2018-02-06T09:48:33.331Z,26.39
2018-02-06T09:51:00.865Z,26.37
2018-02-06T09:53:28.455Z,26.37
2018-02-06T09:55:56.087Z,26.62
2018-02-06T09:58:23.622Z,26.51
2018-02-06T10:00:51.054Z,26.40
2018-02-06T10:03:18.543Z,26.06
2018-02-06T10:05:46.084Z,26.48
2018-02-06T10:08:13.554Z,26.34
2018-02-06T10:10:41.068Z,26.20
2018-02-06T10:13:18.749Z,26.45
2018-02-06T10:15:46.166Z,26.31
2018-02-06T10:18:14.346Z,26.06
2018-02-06T10:20:41.758Z,26.24
2018-02-06T10:23:09.360Z,26.47
2018-02-06T10:25:36.870Z,26.77
2018-02-06T10:28:04.303Z,26.78
2018-02-06T10:30:31.682Z,26.53
2018-02-06T10:32:59.084Z,26.01
2018-02-06T10:35:26.469Z,26.09
2018-02-06T10:37:53.868Z,26.15
2018-02-06T10:40:21.308Z,26.09
2018-02-06T10:42:48.717Z,26.00
2018-02-06T10:45:16.120Z,25.97
2018-02-06T10:47:43.609Z,26.11
2018-02-06T10:50:11.597Z,26.34
2018-02-06T10:52:39.544Z,26.36
2018-02-06T10:55:07.094Z,26.67
2018-02-06T10:57:34.622Z,26.56
2018-02-06T11:00:03.140Z,26.21
2018-02-06T11:02:30.632Z,26.19
2018-02-06T11:04:58.619Z,26.44
2018-02-06T11:07:26.174Z,26.59
2018-02-06T11:09:53.727Z,26.42
2018-02-06T11:12:21.275Z,27.00
2018-02-06T11:14:49.236Z,26.43
2018-02-06T11:17:16.737Z,26.66
2018-02-06T11:19:44.452Z,27.18
2018-02-06T11:22:11.992Z,27.14
2018-02-06T11:24:39.506Z,26.69
2018-02-06T11:27:06.967Z,26.89
2018-02-06T11:32:32.003Z,26.79
2018-02-06T11:34:59.550Z,27.12
2018-02-06T11:37:28.234Z,26.98
2018-02-06T11:39:55.900Z,27.05
2018-02-06T11:42:23.665Z,27.23
2018-02-06T11:44:51.329Z,27.88
2018-02-06T11:47:19.348Z,27.17
2018-02-06T11:49:46.858Z,27.06
2018-02-06T11:52:14.702Z,27.12
2018-02-06T11:54:44.751Z,27.49
2018-02-06T11:57:13.355Z,27.24
2018-02-06T11:59:40.934Z,27.63
2018-02-06T12:02:08.486Z,27.28
2018-02-06T12:04:36.043Z,27.79
2018-02-06T12:07:03.518Z,27.56
2018-02-06T12:09:31.081Z,27.55
2018-02-06T12:11:58.542Z,27.28
2018-02-06T12:14:25.935Z,27.28
2018-02-06T12:16:53.412Z,27.11
2018-02-06T12:19:20.863Z,27.18
2018-02-06T12:21:48.251Z,27.07
2018-02-06T12:24:15.640Z,26.86
2018-02-06T12:26:43.068Z,26.71
2018-02-06T12:29:10.622Z,26.87
2018-02-06T12:31:38.005Z,26.98
2018-02-06T12:34:05.553Z,27.13
2018-02-06T12:36:32.955Z,27.29
2018-02-06T12:39:00.334Z,27.04
2018-02-06T12:41:27.767Z,27.09
2018-02-06T12:43:55.164Z,26.96
2018-02-06T12:46:22.615Z,26.89
2018-02-06T12:48:50.001Z,26.87
2018-02-06T12:51:17.433Z,26.97
2018-02-06T12:53:44.870Z,26.92
2018-02-06T12:56:12.270Z,26.86
2018-02-06T12:58:39.715Z,26.97
2018-02-06T13:01:07.151Z,26.99
2018-02-06T13:03:34.540Z,26.94
2018-02-06T13:06:02.074Z,26.95
2018-02-06T13:08:29.489Z,26.92
2018-02-06T13:10:57.077Z,26.92
2018-02-06T13:13:24.462Z,27.13
2018-02-06T13:15:51.884Z,27.16
2018-02-06T13:18:19.274Z,27.28
2018-02-06T13:20:46.727Z,27.17
2018-02-06T13:23:14.153Z,27.17
2018-02-06T13:25:41.607Z,27.34
2018-02-06T13:28:09.111Z,27.23
2018-02-06T13:30:36.542Z,27.90
2018-02-06T13:33:04.101Z,27.87
2018-02-06T13:35:31.547Z,27.04
2018-02-06T13:37:58.948Z,28.01
2018-02-06T13:40:26.354Z,27.17
2018-02-06T13:42:53.780Z,27.66
2018-02-06T13:45:21.207Z,27.42
2018-02-06T13:47:48.679Z,28.28
2018-02-06T13:50:16.117Z,28.61
2018-02-06T13:52:43.658Z,28.81
2018-02-06T13:55:11.108Z,27.99
2018-02-06T13:57:38.543Z,28.33
2018-02-06T14:00:06.698Z,27.85
2018-02-06T14:02:34.138Z,27.30
2018-02-06T14:05:01.555Z,27.28
2018-02-06T14:07:28.998Z,27.14
2018-02-06T14:09:56.425Z,27.11
2018-02-06T14:12:23.910Z,27.12
2018-02-06T14:14:51.335Z,26.97
2018-02-06T14:17:18.914Z,27.42
2018-02-06T14:19:46.346Z,27.34
2018-02-06T14:22:13.812Z,27.22
2018-02-06T14:24:41.246Z,27.37
2018-02-06T14:27:08.675Z,27.29
2018-02-06T14:29:36.191Z,27.32
2018-02-06T14:32:03.754Z,27.41
2018-02-06T14:34:31.282Z,27.22
2018-02-06T14:36:58.667Z,27.30
2018-02-06T14:39:26.047Z,27.21
2018-02-06T14:41:53.441Z,27.10
2018-02-06T14:44:20.996Z,27.05
2018-02-06T14:46:48.484Z,26.75
2018-02-06T14:49:15.889Z,26.83
2018-02-06T14:51:43.348Z,26.98
2018-02-06T14:54:10.733Z,26.94
2018-02-06T14:56:38.167Z,27.05
2018-02-06T14:59:05.579Z,26.96
2018-02-06T15:01:33.028Z,26.94
2018-02-06T15:04:00.649Z,26.92
2018-02-06T15:06:28.111Z,27.05
2018-02-06T15:08:55.585Z,26.85
2018-02-06T15:11:23.027Z,26.56
2018-02-06T15:13:50.587Z,26.75
2018-02-06T15:16:18.001Z,27.06
2018-02-06T15:18:45.424Z,26.96
2018-02-06T15:21:12.834Z,26.93
2018-02-06T15:23:40.253Z,26.84
2018-02-06T15:26:07.681Z,27.10
2018-02-06T15:28:35.211Z,26.68
2018-02-06T15:31:02.636Z,26.84
2018-02-06T15:33:30.035Z,27.16
2018-02-06T15:35:57.433Z,26.99
2018-02-06T15:38:24.850Z,27.00
2018-02-06T15:40:52.252Z,26.79
2018-02-06T15:43:19.680Z,26.88
2018-02-06T15:45:47.257Z,27.07
2018-02-06T15:48:14.660Z,27.03
2018-02-06T15:50:42.138Z,26.88
2018-02-06T15:53:09.527Z,26.73
2018-02-06T15:55:36.968Z,26.92
2018-02-06T15:58:04.378Z,26.95
2018-02-06T16:00:31.755Z,26.95
2018-02-06T16:02:59.130Z,26.75
2018-02-06T16:05:26.505Z,26.79
2018-02-06T16:07:53.925Z,26.67
2018-02-06T16:10:21.334Z,26.48
2018-02-06T16:12:48.722Z,26.92
2018-02-06T16:15:16.106Z,26.63
2018-02-06T16:17:43.578Z,26.59
2018-02-06T16:20:10.991Z,26.83
2018-02-06T16:22:38.397Z,26.60
2018-02-06T16:25:05.819Z,26.53
2018-02-06T16:27:33.461Z,26.57
2018-02-06T16:30:00.882Z,26.67
2018-02-06T16:32:28.251Z,26.45
2018-02-06T16:34:55.688Z,26.53
2018-02-06T16:37:23.124Z,26.42
2018-02-06T16:39:50.530Z,26.60
2018-02-06T16:42:17.954Z,26.34
2018-02-06T16:44:45.375Z,26.41
2018-02-06T16:47:12.782Z,26.49
2018-02-06T16:49:40.193Z,26.15
2018-02-06T16:52:07.566Z,26.32
2018-02-06T16:54:34.962Z,26.34
2018-02-06T16:57:02.400Z,26.43
2018-02-06T16:59:29.814Z,26.31
2018-02-06T17:01:57.229Z,26.28
2018-02-06T17:04:24.601Z,26.40
2018-02-06T17:06:52.032Z,26.33
2018-02-06T17:09:19.407Z,26.28
2018-02-06T17:11:46.772Z,26.27
2018-02-06T17:14:14.142Z,26.39
2018-02-06T17:16:41.550Z,26.28
2018-02-06T17:19:08.949Z,26.37
2018-02-06T17:21:36.365Z,26.21
2018-02-06T17:24:03.818Z,26.20
2018-02-06T17:26:31.238Z,26.31
2018-02-06T17:28:58.657Z,26.27
2018-02-06T17:31:26.041Z,26.26
2018-02-06T17:33:53.586Z,26.13
2018-02-06T17:36:20.970Z,26.44
2018-02-06T17:38:48.400Z,26.40
2018-02-06T17:41:15.853Z,26.21
2018-02-06T17:43:43.252Z,26.21
2018-02-06T17:46:10.680Z,26.23
2018-02-06T17:48:38.124Z,26.30
2018-02-06T17:51:05.534Z,26.21
2018-02-06T17:53:32.974Z,26.33
2018-02-06T17:56:00.365Z,26.20
2018-02-06T17:58:48.201Z,26.10
2018-02-06T18:01:15.719Z,26.14
2018-02-06T18:03:43.161Z,26.31
2018-02-06T18:06:10.570Z,26.46
2018-02-06T18:08:37.979Z,26.25
2018-02-06T18:11:05.390Z,26.28
2018-02-06T18:13:32.763Z,26.28
2018-02-06T18:16:00.174Z,26.27
2018-02-06T18:18:27.597Z,26.24
2018-02-06T18:20:55.078Z,26.20
2018-02-06T18:23:22.527Z,26.26
2018-02-06T18:25:49.920Z,26.19
2018-02-06T18:28:17.368Z,26.09
2018-02-06T18:30:44.786Z,26.03
2018-02-06T18:33:12.236Z,26.01
2018-02-06T18:35:39.630Z,25.99
2018-02-06T18:38:07.071Z,25.97
2018-02-06T18:40:34.499Z,25.91
2018-02-06T18:43:01.886Z,25.86
2018-02-06T18:45:29.286Z,25.88
2018-02-06T18:47:56.720Z,25.87
2018-02-06T18:50:24.184Z,25.85
2018-02-06T18:52:51.580Z,25.87
2018-02-06T18:55:19.006Z,25.80
2018-02-06T18:57:46.430Z,25.82
2018-02-06T19:00:13.861Z,25.85
2018-02-06T19:02:41.336Z,25.77
2018-02-06T19:05:08.767Z,25.81
2018-02-06T19:07:36.184Z,25.74
2018-02-06T19:10:03.589Z,25.70
2018-02-06T19:12:31.070Z,25.77
2018-02-06T19:14:58.472Z,25.79
2018-02-06T19:17:25.921Z,25.71
2018-02-06T19:19:53.359Z,25.68
2018-02-06T19:22:20.814Z,25.68
2018-02-06T19:24:48.259Z,25.67
2018-02-06T19:27:15.711Z,25.64
2018-02-06T19:29:43.105Z,25.64
2018-02-06T19:32:10.548Z,25.61
2018-02-06T19:34:38.032Z,25.58
2018-02-06T19:37:05.424Z,25.58
2018-02-06T19:39:32.934Z,25.62
2018-02-06T19:42:00.339Z,25.61
2018-02-06T19:44:27.741Z,25.61
2018-02-06T19:46:55.228Z,25.62
2018-02-06T19:49:22.679Z,25.61
2018-02-06T19:51:50.087Z,25.56
2018-02-06T19:54:17.483Z,25.57
2018-02-06T19:56:44.918Z,25.58
2018-02-06T19:59:12.291Z,25.58
2018-02-06T20:01:39.721Z,25.58
2018-02-06T20:04:07.136Z,25.55
2018-02-06T20:06:34.573Z,25.61
2018-02-06T20:09:01.984Z,25.61
2018-02-06T20:11:29.409Z,25.63
2018-02-06T20:13:56.834Z,25.68
2018-02-06T20:16:24.322Z,25.68
2018-02-06T20:18:51.709Z,25.68
2018-02-06T20:21:19.132Z,25.69
2018-02-06T20:23:46.549Z,25.72
2018-02-06T20:26:13.951Z,25.69
2018-02-06T20:28:41.415Z,25.71
2018-02-06T20:31:08.800Z,25.74
2018-02-06T20:33:36.214Z,25.76
2018-02-06T20:36:03.626Z,25.78
2018-02-06T20:38:31.035Z,25.78
2018-02-06T20:40:58.447Z,25.78
2018-02-06T20:43:25.899Z,25.81
2018-02-06T20:45:53.317Z,25.81
2018-02-06T20:48:20.797Z,25.87
2018-02-06T20:50:48.204Z,25.84
2018-02-06T20:53:15.672Z,25.88
2018-02-06T20:55:43.145Z,25.89
2018-02-06T20:58:10.555Z,25.94
2018-02-06T21:00:37.944Z,25.88
2018-02-06T21:03:05.421Z,25.89
2018-02-06T21:05:32.812Z,25.96
2018-02-06T21:08:00.227Z,25.93
2018-02-06T21:10:27.705Z,25.97
2018-02-06T21:12:55.111Z,25.95
2018-02-06T21:15:22.544Z,26.02
2018-02-06T21:17:50.004Z,26.00
2018-02-06T21:20:17.462Z,26.03
2018-02-06T21:22:44.891Z,26.01
2018-02-06T21:25:12.276Z,26.04
2018-02-06T21:27:39.708Z,26.07
2018-02-06T21:30:09.054Z,26.04
2018-02-06T21:32:36.554Z,26.09
2018-02-06T21:35:03.900Z,26.08
2018-02-06T21:37:31.290Z,26.10
2018-02-06T21:39:58.648Z,26.12
2018-02-06T21:42:26.053Z,26.06
2018-02-06T21:44:53.501Z,26.07
2018-02-06T21:47:20.854Z,26.11
2018-02-06T21:49:48.327Z,26.20
2018-02-06T21:52:15.706Z,25.95
2018-02-06T21:54:43.157Z,26.17
2018-02-06T21:57:10.509Z,26.14
2018-02-06T21:59:37.902Z,26.18
2018-02-06T22:02:05.385Z,26.24
2018-02-06T22:04:32.790Z,26.27
2018-02-06T22:07:00.146Z,26.31
2018-02-06T22:09:27.493Z,26.40
2018-02-06T22:11:54.876Z,26.54
2018-02-06T22:14:22.258Z,26.62
2018-02-06T22:16:49.620Z,26.66
2018-02-06T22:19:17.025Z,26.76
2018-02-06T22:21:44.363Z,26.91
2018-02-06T22:24:11.772Z,26.87
2018-02-06T22:26:39.126Z,26.86
2018-02-06T22:29:06.574Z,26.94
2018-02-06T22:31:33.917Z,27.12
2018-02-06T22:34:01.252Z,27.02
2018-02-06T22:36:28.622Z,27.03
2018-02-06T22:38:55.970Z,27.10
2018-02-06T22:41:23.448Z,27.12
2018-02-06T22:43:50.786Z,27.12
2018-02-06T22:46:18.234Z,27.20
2018-02-06T22:48:45.641Z,27.27
2018-02-06T22:51:12.997Z,27.29
2018-02-06T22:53:40.439Z,27.26
2018-02-06T22:56:07.794Z,27.38
2018-02-06T22:58:35.158Z,27.43
2018-02-06T23:01:02.516Z,27.40
2018-02-06T23:03:29.929Z,27.41
2018-02-06T23:05:57.262Z,27.44
2018-02-06T23:08:24.614Z,27.40
2018-02-06T23:10:51.961Z,27.47
2018-02-06T23:13:19.366Z,27.59
2018-02-06T23:15:46.702Z,27.52
2018-02-06T23:18:14.111Z,27.62
2018-02-06T23:20:41.459Z,27.69
2018-02-06T23:23:08.834Z,27.72
2018-02-06T23:25:36.188Z,27.58
2018-02-06T23:28:03.591Z,27.62
2018-02-06T23:30:30.945Z,27.66
2018-02-06T23:32:58.343Z,27.69
2018-02-06T23:35:25.718Z,27.75
2018-02-06T23:37:53.139Z,27.62
2018-02-06T23:40:20.541Z,27.71
2018-02-06T23:42:47.881Z,27.71
2018-02-06T23:45:15.281Z,27.67
2018-02-06T23:47:42.678Z,27.78
2018-02-06T23:50:10.067Z,27.89
2018-02-06T23:52:37.425Z,27.76
2018-02-06T23:55:04.778Z,27.85
2018-02-06T23:57:32.133Z,27.84
2018-02-06T23:59:59.513Z,27.82
